Terminal Aerodrome Forecast
Issued by NWS

Home | Current Version | Previous Version | Text Only | Print | Product List | Glossary Off
Versions: 1 2 3 4 5 6 7 8 9 10 11 12 13 14 15 16 17 18 19 20 21 22

000
FTUS43 KGRB 151738
TAFRHI
TAF
KRHI 151738Z 1518/1618 31008KT P6SM BKN008
     FM160100 31010G16KT P6SM OVC015
     FM160500 33010KT P6SM OVC025
     FM161500 01009KT P6SM BKN035=

USA.gov is the U.S. government's official web portal to all federal, state and local government web resources and services.